F/V Jeremi Simon — FHAF — position and weather

sailwx.info

Track history (hours):
 
Tides and Currents Weather Stations Pressure Air Temp Water Temp Dewpoint Dewpoint Depression Visibility Wind Speed Wind Dir Waves Ship Positions

F/V Jeremi Simon

Last reported at 2015-Jan-28 21:11 UTC. Time now 2015-Jan-30 06:24 UTC.
Position N 46°42' W 001°56'.

Length 20 m.

Type: Other ship. MMSI: 227415000.

Date/timePositionNaut miles runAvg speedWind from/ knotsBaromVisibWave heightAir tempDewpointWater temp
2015-Jan-28 21:11N 46°42' W 001°56'4 6.8
2015-Jan-28 20:33N 46°38' W 001°58'9 9.2
2015-Jan-28 19:33N 46°28' W 001°58'9 9.3
2015-Jan-28 18:33N 46°19' W 001°59'  
2015-Jan-25 09:10N 46°07' W 001°49'610.2
2015-Jan-25 08:33N 46°13' W 001°50'1010.0
2015-Jan-25 07:33N 46°23' W 001°53'1010.2
2015-Jan-25 06:33N 46°33' W 001°55'9 8.9
2015-Jan-25 05:33N 46°42' W 001°57'  
2015-Jan-22 14:12N 46°42' W 001°56'3 5.3
2015-Jan-22 13:33N 46°38' W 001°57'1010.1
2015-Jan-22 12:34N 46°28' W 001°55'1010.4
2015-Jan-22 11:34N 46°18' W 001°52'  
2015-Jan-19 20:06N 46°04' W 001°53'710.1
2015-Jan-19 19:24N 46°11' W 001°54'910.2
2015-Jan-19 18:34N 46°19' W 001°54'1010.2
2015-Jan-19 17:33N 46°30' W 001°55'1010.3
2015-Jan-19 16:34N 46°40' W 001°57'  
Track history (hours):
 
Tides and Currents Weather Stations Pressure Air Temp Water Temp Dewpoint Dewpoint Depression Visibility Wind Speed Wind Dir Waves Ship Positions

F/V Jeremi Simon

Last reported at 2015-Jan-28 21:11 UTC. Time now 2015-Jan-30 06:24 UTC.
Position N 46°42' W 001°56'.

Length 20 m.

Type: Other ship. MMSI: 227415000.

Date/timePositionNaut miles runAvg speedWind from/ knotsBaromVisibWave heightAir tempDewpointWater temp
2015-Jan-28 21:11N 46°42' W 001°56'4 6.8
2015-Jan-28 20:33N 46°38' W 001°58'9 9.2
2015-Jan-28 19:33N 46°28' W 001°58'9 9.3
2015-Jan-28 18:33N 46°19' W 001°59'  
2015-Jan-25 09:10N 46°07' W 001°49'610.2
2015-Jan-25 08:33N 46°13' W 001°50'1010.0
2015-Jan-25 07:33N 46°23' W 001°53'1010.2
2015-Jan-25 06:33N 46°33' W 001°55'9 8.9
2015-Jan-25 05:33N 46°42' W 001°57'  
2015-Jan-22 14:12N 46°42' W 001°56'3 5.3
2015-Jan-22 13:33N 46°38' W 001°57'1010.1
2015-Jan-22 12:34N 46°28' W 001°55'1010.4
2015-Jan-22 11:34N 46°18' W 001°52'  
2015-Jan-19 20:06N 46°04' W 001°53'710.1
2015-Jan-19 19:24N 46°11' W 001°54'910.2
2015-Jan-19 18:34N 46°19' W 001°54'1010.2
2015-Jan-19 17:33N 46°30' W 001°55'1010.3
2015-Jan-19 16:34N 46°40' W 001°57'  

Dump ship's entire track history